sensor_id;sensor_type;location;lat;lon;timestamp;P1;durP1;ratioP1;P2;durP2;ratioP2
11651;SDS011;5882;48.818;9.114;2023-07-31T00:01:44;2.42;;;1.02;;
11651;SDS011;5882;48.818;9.114;2023-07-31T00:04:33;1.08;;;0.98;;
11651;SDS011;5882;48.818;9.114;2023-07-31T00:07:19;1.02;;;1.00;;
11651;SDS011;5882;48.818;9.114;2023-07-31T00:10:51;2.38;;;1.23;;
11651;SDS011;5882;48.818;9.114;2023-07-31T00:13:16;1.15;;;1.05;;
11651;SDS011;5882;48.818;9.114;2023-07-31T00:19:07;1.15;;;1.02;;
11651;SDS011;5882;48.818;9.114;2023-07-31T00:21:55;1.10;;;1.00;;
11651;SDS011;5882;48.818;9.114;2023-07-31T00:24:43;1.65;;;1.00;;
11651;SDS011;5882;48.818;9.114;2023-07-31T00:27:49;1.88;;;1.30;;
11651;SDS011;5882;48.818;9.114;2023-07-31T00:30:44;1.20;;;1.10;;
11651;SDS011;5882;48.818;9.114;2023-07-31T00:33:54;1.10;;;1.00;;
11651;SDS011;5882;48.818;9.114;2023-07-31T00:36:45;0.98;;;0.98;;
11651;SDS011;5882;48.818;9.114;2023-07-31T00:39:47;1.10;;;1.10;;
11651;SDS011;5882;48.818;9.114;2023-07-31T00:42:34;1.33;;;1.23;;
11651;SDS011;5882;48.818;9.114;2023-07-31T00:45:19;1.27;;;1.10;;
11651;SDS011;5882;48.818;9.114;2023-07-31T00:48:27;2.03;;;1.50;;
11651;SDS011;5882;48.818;9.114;2023-07-31T00:51:21;1.30;;;1.20;;
11651;SDS011;5882;48.818;9.114;2023-07-31T00:57:50;1.30;;;1.08;;
11651;SDS011;5882;48.818;9.114;2023-07-31T01:01:11;1.20;;;1.10;;
11651;SDS011;5882;48.818;9.114;2023-07-31T01:04:39;0.95;;;0.95;;
11651;SDS011;5882;48.818;9.114;2023-07-31T01:08:04;1.80;;;1.05;;
11651;SDS011;5882;48.818;9.114;2023-07-31T01:10:45;2.50;;;1.08;;
11651;SDS011;5882;48.818;9.114;2023-07-31T01:13:50;1.40;;;1.30;;
11651;SDS011;5882;48.818;9.114;2023-07-31T01:16:55;0.95;;;0.95;;
11651;SDS011;5882;48.818;9.114;2023-07-31T01:20:08;1.42;;;1.05;;
11651;SDS011;5882;48.818;9.114;2023-07-31T01:23:18;1.75;;;1.10;;
11651;SDS011;5882;48.818;9.114;2023-07-31T01:26:14;1.20;;;1.10;;
11651;SDS011;5882;48.818;9.114;2023-07-31T01:29:26;0.98;;;0.98;;
11651;SDS011;5882;48.818;9.114;2023-07-31T01:32:32;1.58;;;1.05;;
11651;SDS011;5882;48.818;9.114;2023-07-31T01:35:19;1.83;;;1.30;;
11651;SDS011;5882;48.818;9.114;2023-07-31T01:38:11;1.00;;;0.93;;
11651;SDS011;5882;48.818;9.114;2023-07-31T01:41:02;1.00;;;1.00;;
11651;SDS011;5882;48.818;9.114;2023-07-31T01:44:00;1.40;;;1.30;;
11651;SDS011;5882;48.818;9.114;2023-07-31T01:46:47;1.30;;;1.20;;
11651;SDS011;5882;48.818;9.114;2023-07-31T01:49:34;1.42;;;1.33;;
11651;SDS011;5882;48.818;9.114;2023-07-31T01:52:20;1.27;;;1.10;;
11651;SDS011;5882;48.818;9.114;2023-07-31T01:55:07;1.17;;;1.17;;
11651;SDS011;5882;48.818;9.114;2023-07-31T01:58:04;1.17;;;1.17;;
11651;SDS011;5882;48.818;9.114;2023-07-31T02:00:50;1.10;;;1.10;;
11651;SDS011;5882;48.818;9.114;2023-07-31T02:03:35;1.38;;;1.20;;
11651;SDS011;5882;48.818;9.114;2023-07-31T02:06:21;1.23;;;1.13;;
11651;SDS011;5882;48.818;9.114;2023-07-31T02:09:06;2.80;;;1.25;;
11651;SDS011;5882;48.818;9.114;2023-07-31T02:11:52;1.90;;;1.20;;
11651;SDS011;5882;48.818;9.114;2023-07-31T02:14:38;2.13;;;1.00;;
11651;SDS011;5882;48.818;9.114;2023-07-31T02:17:27;1.50;;;1.27;;
11651;SDS011;5882;48.818;9.114;2023-07-31T02:20:25;1.10;;;1.00;;
11651;SDS011;5882;48.818;9.114;2023-07-31T02:23:11;1.00;;;1.00;;
11651;SDS011;5882;48.818;9.114;2023-07-31T02:25:56;1.35;;;1.25;;
11651;SDS011;5882;48.818;9.114;2023-07-31T02:28:42;1.73;;;1.15;;
11651;SDS011;5882;48.818;9.114;2023-07-31T02:31:27;2.25;;;1.13;;
11651;SDS011;5882;48.818;9.114;2023-07-31T02:34:14;1.65;;;1.10;;
11651;SDS011;5882;48.818;9.114;2023-07-31T02:37:00;1.20;;;1.10;;
11651;SDS011;5882;48.818;9.114;2023-07-31T02:39:45;1.10;;;1.00;;
11651;SDS011;5882;48.818;9.114;2023-07-31T02:42:32;1.00;;;1.00;;
11651;SDS011;5882;48.818;9.114;2023-07-31T02:45:18;1.25;;;1.15;;
11651;SDS011;5882;48.818;9.114;2023-07-31T02:48:03;1.05;;;1.00;;
11651;SDS011;5882;48.818;9.114;2023-07-31T02:50:54;1.98;;;1.30;;
11651;SDS011;5882;48.818;9.114;2023-07-31T02:53:39;1.20;;;1.10;;
11651;SDS011;5882;48.818;9.114;2023-07-31T02:56:25;1.30;;;1.20;;
11651;SDS011;5882;48.818;9.114;2023-07-31T03:02:46;1.08;;;1.08;;
11651;SDS011;5882;48.818;9.114;2023-07-31T03:05:31;1.55;;;1.17;;
11651;SDS011;5882;48.818;9.114;2023-07-31T03:08:18;1.30;;;1.20;;
11651;SDS011;5882;48.818;9.114;2023-07-31T03:11:03;1.35;;;1.23;;
11651;SDS011;5882;48.818;9.114;2023-07-31T03:13:48;1.63;;;1.20;;
11651;SDS011;5882;48.818;9.114;2023-07-31T03:16:34;0.95;;;0.95;;
11651;SDS011;5882;48.818;9.114;2023-07-31T03:19:20;0.90;;;0.90;;
11651;SDS011;5882;48.818;9.114;2023-07-31T03:22:19;1.25;;;1.15;;
11651;SDS011;5882;48.818;9.114;2023-07-31T03:25:21;1.25;;;1.15;;
11651;SDS011;5882;48.818;9.114;2023-07-31T03:28:25;1.30;;;1.20;;
11651;SDS011;5882;48.818;9.114;2023-07-31T03:35:08;0.98;;;0.98;;
11651;SDS011;5882;48.818;9.114;2023-07-31T03:38:19;1.30;;;1.20;;
11651;SDS011;5882;48.818;9.114;2023-07-31T03:50:58;1.08;;;1.08;;
11651;SDS011;5882;48.818;9.114;2023-07-31T03:53:59;1.25;;;1.15;;
11651;SDS011;5882;48.818;9.114;2023-07-31T03:57:01;0.90;;;0.90;;
11651;SDS011;5882;48.818;9.114;2023-07-31T04:00:36;1.20;;;0.93;;
11651;SDS011;5882;48.818;9.114;2023-07-31T04:03:13;1.65;;;1.27;;
11651;SDS011;5882;48.818;9.114;2023-07-31T04:09:26;1.38;;;1.27;;
11651;SDS011;5882;48.818;9.114;2023-07-31T04:12:12;1.13;;;0.90;;
11651;SDS011;5882;48.818;9.114;2023-07-31T04:15:03;1.10;;;1.10;;
11651;SDS011;5882;48.818;9.114;2023-07-31T04:18:20;0.90;;;0.90;;
11651;SDS011;5882;48.818;9.114;2023-07-31T04:21:16;1.05;;;1.02;;
11651;SDS011;5882;48.818;9.114;2023-07-31T04:24:02;1.15;;;1.10;;
11651;SDS011;5882;48.818;9.114;2023-07-31T04:30:26;0.93;;;0.93;;
11651;SDS011;5882;48.818;9.114;2023-07-31T04:33:19;1.00;;;1.00;;
11651;SDS011;5882;48.818;9.114;2023-07-31T04:36:10;1.00;;;0.90;;
11651;SDS011;5882;48.818;9.114;2023-07-31T04:38:55;1.08;;;1.08;;
11651;SDS011;5882;48.818;9.114;2023-07-31T04:41:43;1.30;;;1.20;;
11651;SDS011;5882;48.818;9.114;2023-07-31T04:44:29;1.23;;;1.13;;
11651;SDS011;5882;48.818;9.114;2023-07-31T04:47:14;1.25;;;1.15;;
11651;SDS011;5882;48.818;9.114;2023-07-31T04:50:00;1.20;;;1.10;;
11651;SDS011;5882;48.818;9.114;2023-07-31T04:52:45;0.90;;;0.90;;
11651;SDS011;5882;48.818;9.114;2023-07-31T04:55:31;1.30;;;1.20;;
11651;SDS011;5882;48.818;9.114;2023-07-31T04:58:16;1.40;;;1.30;;
11651;SDS011;5882;48.818;9.114;2023-07-31T05:01:02;1.38;;;1.00;;
11651;SDS011;5882;48.818;9.114;2023-07-31T05:03:47;1.30;;;1.20;;
11651;SDS011;5882;48.818;9.114;2023-07-31T05:06:33;1.20;;;1.10;;
11651;SDS011;5882;48.818;9.114;2023-07-31T05:09:18;1.40;;;1.20;;
11651;SDS011;5882;48.818;9.114;2023-07-31T05:12:04;1.25;;;1.00;;
11651;SDS011;5882;48.818;9.114;2023-07-31T05:14:50;1.50;;;1.00;;
11651;SDS011;5882;48.818;9.114;2023-07-31T05:17:40;3.35;;;1.30;;
11651;SDS011;5882;48.818;9.114;2023-07-31T05:20:25;1.50;;;1.05;;
11651;SDS011;5882;48.818;9.114;2023-07-31T05:23:11;1.92;;;1.23;;
11651;SDS011;5882;48.818;9.114;2023-07-31T05:26:01;1.40;;;1.30;;
11651;SDS011;5882;48.818;9.114;2023-07-31T05:28:47;1.10;;;1.10;;
11651;SDS011;5882;48.818;9.114;2023-07-31T05:31:32;2.00;;;1.23;;
11651;SDS011;5882;48.818;9.114;2023-07-31T05:34:18;1.50;;;1.10;;
11651;SDS011;5882;48.818;9.114;2023-07-31T05:37:04;1.35;;;1.25;;
11651;SDS011;5882;48.818;9.114;2023-07-31T05:39:52;1.00;;;1.00;;
11651;SDS011;5882;48.818;9.114;2023-07-31T05:42:37;1.20;;;1.10;;
11651;SDS011;5882;48.818;9.114;2023-07-31T05:45:22;1.20;;;1.10;;
11651;SDS011;5882;48.818;9.114;2023-07-31T05:48:07;1.10;;;1.00;;
11651;SDS011;5882;48.818;9.114;2023-07-31T05:50:54;1.10;;;0.90;;
11651;SDS011;5882;48.818;9.114;2023-07-31T05:53:40;1.30;;;1.20;;
11651;SDS011;5882;48.818;9.114;2023-07-31T05:56:25;1.15;;;1.15;;
11651;SDS011;5882;48.818;9.114;2023-07-31T05:59:12;1.20;;;1.10;;
11651;SDS011;5882;48.818;9.114;2023-07-31T06:01:57;1.20;;;1.10;;
11651;SDS011;5882;48.818;9.114;2023-07-31T06:04:42;1.45;;;1.10;;
11651;SDS011;5882;48.818;9.114;2023-07-31T06:07:29;1.63;;;1.20;;
11651;SDS011;5882;48.818;9.114;2023-07-31T06:10:14;2.03;;;1.10;;
11651;SDS011;5882;48.818;9.114;2023-07-31T06:12:59;1.00;;;1.00;;
11651;SDS011;5882;48.818;9.114;2023-07-31T06:15:44;1.58;;;1.15;;
11651;SDS011;5882;48.818;9.114;2023-07-31T06:18:29;1.50;;;1.17;;
11651;SDS011;5882;48.818;9.114;2023-07-31T06:21:16;1.30;;;1.20;;
11651;SDS011;5882;48.818;9.114;2023-07-31T06:24:03;1.40;;;1.30;;
11651;SDS011;5882;48.818;9.114;2023-07-31T06:26:49;1.08;;;1.00;;
11651;SDS011;5882;48.818;9.114;2023-07-31T06:29:35;1.15;;;1.10;;
11651;SDS011;5882;48.818;9.114;2023-07-31T06:32:20;1.10;;;1.10;;
11651;SDS011;5882;48.818;9.114;2023-07-31T06:35:05;1.50;;;1.40;;
11651;SDS011;5882;48.818;9.114;2023-07-31T06:37:50;1.13;;;1.10;;
11651;SDS011;5882;48.818;9.114;2023-07-31T06:40:44;2.10;;;1.20;;
11651;SDS011;5882;48.818;9.114;2023-07-31T06:43:31;1.17;;;1.08;;
11651;SDS011;5882;48.818;9.114;2023-07-31T06:46:16;1.23;;;1.10;;
11651;SDS011;5882;48.818;9.114;2023-07-31T06:49:02;1.58;;;1.08;;
11651;SDS011;5882;48.818;9.114;2023-07-31T06:51:47;1.52;;;1.20;;
11651;SDS011;5882;48.818;9.114;2023-07-31T06:54:33;1.20;;;1.10;;
11651;SDS011;5882;48.818;9.114;2023-07-31T06:57:20;1.65;;;1.50;;
11651;SDS011;5882;48.818;9.114;2023-07-31T07:00:05;1.17;;;1.10;;
11651;SDS011;5882;48.818;9.114;2023-07-31T07:02:51;1.63;;;1.52;;
11651;SDS011;5882;48.818;9.114;2023-07-31T07:05:36;1.30;;;1.15;;
11651;SDS011;5882;48.818;9.114;2023-07-31T07:08:21;1.55;;;1.10;;
11651;SDS011;5882;48.818;9.114;2023-07-31T07:11:06;1.30;;;1.13;;
11651;SDS011;5882;48.818;9.114;2023-07-31T07:13:53;1.92;;;1.10;;
11651;SDS011;5882;48.818;9.114;2023-07-31T07:16:39;1.05;;;1.00;;
11651;SDS011;5882;48.818;9.114;2023-07-31T07:19:25;2.97;;;1.20;;
11651;SDS011;5882;48.818;9.114;2023-07-31T07:22:10;1.23;;;1.17;;
11651;SDS011;5882;48.818;9.114;2023-07-31T07:24:55;1.38;;;1.27;;
11651;SDS011;5882;48.818;9.114;2023-07-31T07:27:40;2.03;;;1.30;;
11651;SDS011;5882;48.818;9.114;2023-07-31T07:30:26;1.40;;;1.30;;
11651;SDS011;5882;48.818;9.114;2023-07-31T07:33:11;1.30;;;1.13;;
11651;SDS011;5882;48.818;9.114;2023-07-31T07:36:00;1.15;;;1.05;;
11651;SDS011;5882;48.818;9.114;2023-07-31T07:38:45;1.20;;;1.10;;
11651;SDS011;5882;48.818;9.114;2023-07-31T07:41:30;0.90;;;0.90;;
11651;SDS011;5882;48.818;9.114;2023-07-31T07:44:16;1.20;;;1.10;;
11651;SDS011;5882;48.818;9.114;2023-07-31T07:47:02;1.20;;;1.15;;
11651;SDS011;5882;48.818;9.114;2023-07-31T07:49:49;1.30;;;1.20;;
11651;SDS011;5882;48.818;9.114;2023-07-31T07:52:34;2.53;;;1.20;;
11651;SDS011;5882;48.818;9.114;2023-07-31T07:55:19;1.40;;;1.30;;
11651;SDS011;5882;48.818;9.114;2023-07-31T07:58:05;1.92;;;1.20;;
11651;SDS011;5882;48.818;9.114;2023-07-31T08:00:50;1.23;;;1.13;;
11651;SDS011;5882;48.818;9.114;2023-07-31T08:03:37;3.13;;;1.40;;
11651;SDS011;5882;48.818;9.114;2023-07-31T08:06:22;1.20;;;1.02;;
11651;SDS011;5882;48.818;9.114;2023-07-31T08:09:08;1.20;;;1.10;;
11651;SDS011;5882;48.818;9.114;2023-07-31T08:11:53;1.65;;;1.27;;
11651;SDS011;5882;48.818;9.114;2023-07-31T08:14:45;1.45;;;1.35;;
11651;SDS011;5882;48.818;9.114;2023-07-31T08:17:30;1.88;;;1.30;;
11651;SDS011;5882;48.818;9.114;2023-07-31T08:20:19;1.30;;;1.20;;
11651;SDS011;5882;48.818;9.114;2023-07-31T08:23:04;1.35;;;1.25;;
11651;SDS011;5882;48.818;9.114;2023-07-31T08:25:49;1.40;;;1.30;;
11651;SDS011;5882;48.818;9.114;2023-07-31T08:28:35;1.60;;;1.15;;
11651;SDS011;5882;48.818;9.114;2023-07-31T08:31:21;3.47;;;1.30;;
11651;SDS011;5882;48.818;9.114;2023-07-31T08:34:07;1.60;;;1.50;;
11651;SDS011;5882;48.818;9.114;2023-07-31T08:36:53;1.80;;;1.30;;
11651;SDS011;5882;48.818;9.114;2023-07-31T08:39:39;1.27;;;1.17;;
11651;SDS011;5882;48.818;9.114;2023-07-31T08:42:24;1.52;;;1.40;;
11651;SDS011;5882;48.818;9.114;2023-07-31T08:45:11;1.73;;;1.27;;
11651;SDS011;5882;48.818;9.114;2023-07-31T08:47:57;1.20;;;1.10;;
11651;SDS011;5882;48.818;9.114;2023-07-31T08:50:43;1.30;;;1.20;;
11651;SDS011;5882;48.818;9.114;2023-07-31T08:53:30;1.60;;;1.50;;
11651;SDS011;5882;48.818;9.114;2023-07-31T08:56:15;1.40;;;1.30;;
11651;SDS011;5882;48.818;9.114;2023-07-31T08:59:02;1.70;;;1.05;;
11651;SDS011;5882;48.818;9.114;2023-07-31T09:01:49;1.27;;;1.17;;
11651;SDS011;5882;48.818;9.114;2023-07-31T09:04:35;1.45;;;1.35;;
11651;SDS011;5882;48.818;9.114;2023-07-31T09:07:20;1.52;;;1.17;;
11651;SDS011;5882;48.818;9.114;2023-07-31T09:10:08;1.58;;;1.27;;
11651;SDS011;5882;48.818;9.114;2023-07-31T09:12:53;1.77;;;1.15;;
11651;SDS011;5882;48.818;9.114;2023-07-31T09:15:39;1.45;;;1.40;;
11651;SDS011;5882;48.818;9.114;2023-07-31T09:18:24;1.40;;;1.30;;
11651;SDS011;5882;48.818;9.114;2023-07-31T09:21:09;1.35;;;1.25;;
11651;SDS011;5882;48.818;9.114;2023-07-31T09:23:54;1.67;;;1.13;;
11651;SDS011;5882;48.818;9.114;2023-07-31T09:26:41;1.80;;;1.33;;
11651;SDS011;5882;48.818;9.114;2023-07-31T09:29:27;1.73;;;1.45;;
11651;SDS011;5882;48.818;9.114;2023-07-31T09:32:15;1.98;;;1.42;;
11651;SDS011;5882;48.818;9.114;2023-07-31T09:35:01;1.40;;;1.20;;
11651;SDS011;5882;48.818;9.114;2023-07-31T09:37:51;1.20;;;1.10;;
11651;SDS011;5882;48.818;9.114;2023-07-31T09:40:37;1.27;;;1.10;;
11651;SDS011;5882;48.818;9.114;2023-07-31T09:43:23;2.40;;;1.58;;
11651;SDS011;5882;48.818;9.114;2023-07-31T09:46:13;1.40;;;1.30;;
11651;SDS011;5882;48.818;9.114;2023-07-31T09:49:05;1.40;;;1.30;;
11651;SDS011;5882;48.818;9.114;2023-07-31T09:51:50;1.52;;;1.42;;
11651;SDS011;5882;48.818;9.114;2023-07-31T09:54:35;2.22;;;1.50;;
11651;SDS011;5882;48.818;9.114;2023-07-31T09:57:21;1.75;;;1.40;;
11651;SDS011;5882;48.818;9.114;2023-07-31T10:00:11;1.80;;;1.30;;
11651;SDS011;5882;48.818;9.114;2023-07-31T10:02:58;1.63;;;1.40;;
11651;SDS011;5882;48.818;9.114;2023-07-31T10:05:45;3.55;;;1.65;;
11651;SDS011;5882;48.818;9.114;2023-07-31T10:08:32;2.05;;;1.38;;
11651;SDS011;5882;48.818;9.114;2023-07-31T10:11:20;1.40;;;1.30;;
11651;SDS011;5882;48.818;9.114;2023-07-31T10:14:09;1.67;;;1.30;;
11651;SDS011;5882;48.818;9.114;2023-07-31T10:16:57;1.60;;;1.50;;
11651;SDS011;5882;48.818;9.114;2023-07-31T10:19:43;1.67;;;1.58;;
11651;SDS011;5882;48.818;9.114;2023-07-31T10:22:29;1.40;;;1.30;;
11651;SDS011;5882;48.818;9.114;2023-07-31T10:25:15;1.45;;;1.30;;
11651;SDS011;5882;48.818;9.114;2023-07-31T10:28:00;1.45;;;1.35;;
11651;SDS011;5882;48.818;9.114;2023-07-31T10:30:48;1.35;;;1.25;;
11651;SDS011;5882;48.818;9.114;2023-07-31T10:33:35;2.25;;;1.30;;
11651;SDS011;5882;48.818;9.114;2023-07-31T10:36:21;2.08;;;1.27;;
11651;SDS011;5882;48.818;9.114;2023-07-31T10:42:10;1.23;;;1.13;;
11651;SDS011;5882;48.818;9.114;2023-07-31T10:44:56;1.65;;;1.50;;
11651;SDS011;5882;48.818;9.114;2023-07-31T10:47:42;1.75;;;1.65;;
11651;SDS011;5882;48.818;9.114;2023-07-31T10:50:31;1.35;;;1.25;;
11651;SDS011;5882;48.818;9.114;2023-07-31T10:53:23;1.20;;;1.10;;
11651;SDS011;5882;48.818;9.114;2023-07-31T10:56:09;1.98;;;1.40;;
11651;SDS011;5882;48.818;9.114;2023-07-31T10:59:00;1.95;;;1.40;;
11651;SDS011;5882;48.818;9.114;2023-07-31T11:01:51;3.17;;;1.80;;
11651;SDS011;5882;48.818;9.114;2023-07-31T11:04:47;2.45;;;1.42;;
11651;SDS011;5882;48.818;9.114;2023-07-31T11:07:51;1.23;;;1.13;;
11651;SDS011;5882;48.818;9.114;2023-07-31T11:10:41;1.60;;;1.50;;
11651;SDS011;5882;48.818;9.114;2023-07-31T11:13:26;1.38;;;1.27;;
11651;SDS011;5882;48.818;9.114;2023-07-31T11:16:12;1.88;;;1.33;;
11651;SDS011;5882;48.818;9.114;2023-07-31T11:18:58;1.63;;;1.52;;
11651;SDS011;5882;48.818;9.114;2023-07-31T11:21:43;1.52;;;1.30;;
11651;SDS011;5882;48.818;9.114;2023-07-31T11:24:31;2.13;;;1.45;;
11651;SDS011;5882;48.818;9.114;2023-07-31T11:27:16;1.77;;;1.55;;
11651;SDS011;5882;48.818;9.114;2023-07-31T11:30:01;1.75;;;1.50;;
11651;SDS011;5882;48.818;9.114;2023-07-31T11:32:46;1.77;;;1.40;;
11651;SDS011;5882;48.818;9.114;2023-07-31T11:35:35;2.08;;;1.52;;
11651;SDS011;5882;48.818;9.114;2023-07-31T11:38:21;1.50;;;1.40;;
11651;SDS011;5882;48.818;9.114;2023-07-31T11:41:08;1.60;;;1.50;;
11651;SDS011;5882;48.818;9.114;2023-07-31T11:43:59;1.25;;;1.20;;
11651;SDS011;5882;48.818;9.114;2023-07-31T11:46:44;2.47;;;1.65;;
11651;SDS011;5882;48.818;9.114;2023-07-31T11:49:30;1.50;;;1.40;;
11651;SDS011;5882;48.818;9.114;2023-07-31T11:52:16;1.77;;;1.48;;
11651;SDS011;5882;48.818;9.114;2023-07-31T11:55:04;2.13;;;1.40;;
11651;SDS011;5882;48.818;9.114;2023-07-31T11:57:52;1.60;;;1.50;;
11651;SDS011;5882;48.818;9.114;2023-07-31T12:00:37;1.75;;;1.50;;
11651;SDS011;5882;48.818;9.114;2023-07-31T12:03:23;1.58;;;1.48;;
11651;SDS011;5882;48.818;9.114;2023-07-31T12:06:09;1.45;;;1.35;;
11651;SDS011;5882;48.818;9.114;2023-07-31T12:08:56;1.52;;;1.42;;
11651;SDS011;5882;48.818;9.114;2023-07-31T12:11:45;1.40;;;1.30;;
11651;SDS011;5882;48.818;9.114;2023-07-31T12:14:32;1.40;;;1.30;;
11651;SDS011;5882;48.818;9.114;2023-07-31T12:17:20;2.97;;;1.70;;
11651;SDS011;5882;48.818;9.114;2023-07-31T12:20:05;1.83;;;1.50;;
11651;SDS011;5882;48.818;9.114;2023-07-31T12:22:50;1.40;;;1.30;;
11651;SDS011;5882;48.818;9.114;2023-07-31T12:25:36;1.52;;;1.30;;
11651;SDS011;5882;48.818;9.114;2023-07-31T12:28:24;1.88;;;1.42;;
11651;SDS011;5882;48.818;9.114;2023-07-31T12:31:11;2.55;;;1.40;;
11651;SDS011;5882;48.818;9.114;2023-07-31T12:33:57;1.80;;;1.63;;
11651;SDS011;5882;48.818;9.114;2023-07-31T12:36:42;1.35;;;1.20;;
11651;SDS011;5882;48.818;9.114;2023-07-31T12:39:27;1.50;;;1.40;;
11651;SDS011;5882;48.818;9.114;2023-07-31T12:42:12;1.55;;;1.45;;
11651;SDS011;5882;48.818;9.114;2023-07-31T12:44:57;1.90;;;1.70;;
11651;SDS011;5882;48.818;9.114;2023-07-31T12:47:44;3.55;;;1.70;;
11651;SDS011;5882;48.818;9.114;2023-07-31T12:50:30;3.67;;;1.63;;
11651;SDS011;5882;48.818;9.114;2023-07-31T12:53:15;1.50;;;1.40;;
11651;SDS011;5882;48.818;9.114;2023-07-31T12:56:00;2.28;;;1.55;;
11651;SDS011;5882;48.818;9.114;2023-07-31T12:58:45;2.88;;;1.65;;
11651;SDS011;5882;48.818;9.114;2023-07-31T13:01:31;1.77;;;1.30;;
11651;SDS011;5882;48.818;9.114;2023-07-31T13:04:17;1.60;;;1.50;;
11651;SDS011;5882;48.818;9.114;2023-07-31T13:07:02;2.58;;;1.75;;
11651;SDS011;5882;48.818;9.114;2023-07-31T13:09:48;1.60;;;1.50;;
11651;SDS011;5882;48.818;9.114;2023-07-31T13:12:33;2.03;;;1.83;;
11651;SDS011;5882;48.818;9.114;2023-07-31T13:15:18;1.40;;;1.30;;
11651;SDS011;5882;48.818;9.114;2023-07-31T13:18:03;1.55;;;1.45;;
11651;SDS011;5882;48.818;9.114;2023-07-31T13:20:50;1.65;;;1.55;;
11651;SDS011;5882;48.818;9.114;2023-07-31T13:23:37;1.40;;;1.30;;
11651;SDS011;5882;48.818;9.114;2023-07-31T13:26:22;1.35;;;1.25;;
11651;SDS011;5882;48.818;9.114;2023-07-31T13:29:12;1.30;;;1.20;;
11651;SDS011;5882;48.818;9.114;2023-07-31T13:31:58;1.77;;;1.30;;
11651;SDS011;5882;48.818;9.114;2023-07-31T13:34:43;1.50;;;1.40;;
11651;SDS011;5882;48.818;9.114;2023-07-31T13:37:30;2.13;;;1.42;;
11651;SDS011;5882;48.818;9.114;2023-07-31T13:40:15;1.77;;;1.67;;
11651;SDS011;5882;48.818;9.114;2023-07-31T13:43:00;3.35;;;2.65;;
11651;SDS011;5882;48.818;9.114;2023-07-31T13:45:45;3.60;;;2.47;;
11651;SDS011;5882;48.818;9.114;2023-07-31T13:48:30;2.60;;;1.63;;
11651;SDS011;5882;48.818;9.114;2023-07-31T13:51:15;1.58;;;1.48;;
11651;SDS011;5882;48.818;9.114;2023-07-31T13:54:02;2.05;;;1.55;;
11651;SDS011;5882;48.818;9.114;2023-07-31T13:56:47;2.17;;;1.63;;
11651;SDS011;5882;48.818;9.114;2023-07-31T13:59:35;1.83;;;1.70;;
11651;SDS011;5882;48.818;9.114;2023-07-31T14:02:20;1.33;;;1.23;;
11651;SDS011;5882;48.818;9.114;2023-07-31T14:05:07;1.50;;;1.40;;
11651;SDS011;5882;48.818;9.114;2023-07-31T14:07:53;1.73;;;1.38;;
11651;SDS011;5882;48.818;9.114;2023-07-31T14:10:46;1.45;;;1.30;;
11651;SDS011;5882;48.818;9.114;2023-07-31T14:13:32;1.40;;;1.30;;
11651;SDS011;5882;48.818;9.114;2023-07-31T14:16:17;1.60;;;1.35;;
11651;SDS011;5882;48.818;9.114;2023-07-31T14:19:02;1.23;;;1.20;;
11651;SDS011;5882;48.818;9.114;2023-07-31T14:21:47;1.42;;;1.30;;
11651;SDS011;5882;48.818;9.114;2023-07-31T14:24:32;2.58;;;1.52;;
11651;SDS011;5882;48.818;9.114;2023-07-31T14:27:19;1.88;;;1.35;;
11651;SDS011;5882;48.818;9.114;2023-07-31T14:30:05;1.73;;;1.63;;
11651;SDS011;5882;48.818;9.114;2023-07-31T14:32:50;1.80;;;1.63;;
11651;SDS011;5882;48.818;9.114;2023-07-31T14:35:36;2.22;;;1.58;;
11651;SDS011;5882;48.818;9.114;2023-07-31T14:38:22;1.73;;;1.63;;
11651;SDS011;5882;48.818;9.114;2023-07-31T14:41:07;1.50;;;1.40;;
11651;SDS011;5882;48.818;9.114;2023-07-31T14:43:54;2.00;;;1.40;;
11651;SDS011;5882;48.818;9.114;2023-07-31T14:46:40;2.85;;;1.70;;
11651;SDS011;5882;48.818;9.114;2023-07-31T14:49:25;1.83;;;1.50;;
11651;SDS011;5882;48.818;9.114;2023-07-31T14:52:11;2.13;;;1.50;;
11651;SDS011;5882;48.818;9.114;2023-07-31T14:54:56;2.67;;;1.55;;
11651;SDS011;5882;48.818;9.114;2023-07-31T14:57:42;1.45;;;1.35;;
11651;SDS011;5882;48.818;9.114;2023-07-31T15:00:28;1.80;;;1.60;;
11651;SDS011;5882;48.818;9.114;2023-07-31T15:03:14;1.92;;;1.70;;
11651;SDS011;5882;48.818;9.114;2023-07-31T15:05:59;1.48;;;1.38;;
11651;SDS011;5882;48.818;9.114;2023-07-31T15:08:44;1.70;;;1.60;;
11651;SDS011;5882;48.818;9.114;2023-07-31T15:11:29;1.65;;;1.40;;
11651;SDS011;5882;48.818;9.114;2023-07-31T15:14:15;1.63;;;1.40;;
11651;SDS011;5882;48.818;9.114;2023-07-31T15:17:03;1.55;;;1.45;;
11651;SDS011;5882;48.818;9.114;2023-07-31T15:19:48;1.50;;;1.40;;
11651;SDS011;5882;48.818;9.114;2023-07-31T15:22:34;1.40;;;1.20;;
11651;SDS011;5882;48.818;9.114;2023-07-31T15:25:19;2.90;;;1.55;;
11651;SDS011;5882;48.818;9.114;2023-07-31T15:28:05;1.50;;;1.40;;
11651;SDS011;5882;48.818;9.114;2023-07-31T15:30:51;2.17;;;1.75;;
11651;SDS011;5882;48.818;9.114;2023-07-31T15:33:38;5.00;;;1.48;;
11651;SDS011;5882;48.818;9.114;2023-07-31T15:36:23;1.98;;;1.38;;
11651;SDS011;5882;48.818;9.114;2023-07-31T15:39:08;1.40;;;1.30;;
11651;SDS011;5882;48.818;9.114;2023-07-31T15:42:02;1.30;;;1.20;;
11651;SDS011;5882;48.818;9.114;2023-07-31T15:44:49;1.30;;;1.20;;
11651;SDS011;5882;48.818;9.114;2023-07-31T15:47:34;2.72;;;1.38;;
11651;SDS011;5882;48.818;9.114;2023-07-31T15:50:20;1.38;;;1.27;;
11651;SDS011;5882;48.818;9.114;2023-07-31T15:53:06;1.90;;;1.70;;
11651;SDS011;5882;48.818;9.114;2023-07-31T15:55:51;1.60;;;1.50;;
11651;SDS011;5882;48.818;9.114;2023-07-31T15:58:36;1.33;;;1.23;;
11651;SDS011;5882;48.818;9.114;2023-07-31T16:01:22;1.52;;;1.42;;
11651;SDS011;5882;48.818;9.114;2023-07-31T16:04:07;1.50;;;1.40;;
11651;SDS011;5882;48.818;9.114;2023-07-31T16:06:55;1.30;;;1.20;;
11651;SDS011;5882;48.818;9.114;2023-07-31T16:09:41;1.77;;;1.60;;
11651;SDS011;5882;48.818;9.114;2023-07-31T16:12:26;1.88;;;1.77;;
11651;SDS011;5882;48.818;9.114;2023-07-31T16:15:11;3.95;;;1.48;;
11651;SDS011;5882;48.818;9.114;2023-07-31T16:17:56;1.42;;;1.33;;
11651;SDS011;5882;48.818;9.114;2023-07-31T16:20:41;1.30;;;1.20;;
11651;SDS011;5882;48.818;9.114;2023-07-31T16:23:28;1.60;;;1.50;;
11651;SDS011;5882;48.818;9.114;2023-07-31T16:26:14;1.50;;;1.35;;
11651;SDS011;5882;48.818;9.114;2023-07-31T16:28:59;2.15;;;1.40;;
11651;SDS011;5882;48.818;9.114;2023-07-31T16:31:54;1.60;;;1.50;;
11651;SDS011;5882;48.818;9.114;2023-07-31T16:34:39;2.10;;;1.67;;
11651;SDS011;5882;48.818;9.114;2023-07-31T16:37:24;1.92;;;1.70;;
11651;SDS011;5882;48.818;9.114;2023-07-31T16:40:14;1.52;;;1.40;;
11651;SDS011;5882;48.818;9.114;2023-07-31T16:43:01;1.60;;;1.50;;
11651;SDS011;5882;48.818;9.114;2023-07-31T16:45:46;1.30;;;1.20;;
11651;SDS011;5882;48.818;9.114;2023-07-31T16:48:35;1.80;;;1.40;;
11651;SDS011;5882;48.818;9.114;2023-07-31T16:51:20;1.40;;;1.30;;
11651;SDS011;5882;48.818;9.114;2023-07-31T16:54:06;1.55;;;1.42;;
11651;SDS011;5882;48.818;9.114;2023-07-31T16:56:53;1.48;;;1.38;;
11651;SDS011;5882;48.818;9.114;2023-07-31T16:59:38;1.60;;;1.42;;
11651;SDS011;5882;48.818;9.114;2023-07-31T17:02:23;1.67;;;1.58;;
11651;SDS011;5882;48.818;9.114;2023-07-31T17:05:09;1.63;;;1.52;;
11651;SDS011;5882;48.818;9.114;2023-07-31T17:07:54;1.30;;;1.20;;
11651;SDS011;5882;48.818;9.114;2023-07-31T17:10:42;1.80;;;1.70;;
11651;SDS011;5882;48.818;9.114;2023-07-31T17:13:29;2.70;;;1.50;;
11651;SDS011;5882;48.818;9.114;2023-07-31T17:16:16;1.42;;;1.23;;
11651;SDS011;5882;48.818;9.114;2023-07-31T17:19:02;1.50;;;1.40;;
11651;SDS011;5882;48.818;9.114;2023-07-31T17:21:48;1.60;;;1.50;;
11651;SDS011;5882;48.818;9.114;2023-07-31T17:24:35;1.85;;;1.70;;
11651;SDS011;5882;48.818;9.114;2023-07-31T17:27:20;2.58;;;1.30;;
11651;SDS011;5882;48.818;9.114;2023-07-31T17:30:21;2.20;;;1.55;;
11651;SDS011;5882;48.818;9.114;2023-07-31T17:33:06;3.17;;;1.77;;
11651;SDS011;5882;48.818;9.114;2023-07-31T17:35:52;2.15;;;1.45;;
11651;SDS011;5882;48.818;9.114;2023-07-31T17:38:37;1.88;;;1.50;;
11651;SDS011;5882;48.818;9.114;2023-07-31T17:41:26;1.30;;;1.20;;